sensor_id;sensor_type;location;lat;lon;timestamp;pressure;altitude;pressure_sealevel;temperature;humidity
60715;BME280;46564;53.096;8.246;2023-06-26T00:00:36;101195.31;;;21.22;72.96
60715;BME280;46564;53.096;8.246;2023-06-26T00:05:39;101191.88;;;21.17;72.96
60715;BME280;46564;53.096;8.246;2023-06-26T00:10:41;101182.22;;;21.11;73.29
60715;BME280;46564;53.096;8.246;2023-06-26T00:15:43;101186.75;;;21.08;73.59
60715;BME280;46564;53.096;8.246;2023-06-26T00:20:45;101182.34;;;21.05;73.52
60715;BME280;46564;53.096;8.246;2023-06-26T00:25:46;101174.47;;;21.00;74.01
60715;BME280;46564;53.096;8.246;2023-06-26T00:30:48;101171.88;;;20.97;74.05
60715;BME280;46564;53.096;8.246;2023-06-26T00:35:50;101166.59;;;20.94;74.33
60715;BME280;46564;53.096;8.246;2023-06-26T00:40:52;101162.25;;;20.90;74.46
60715;BME280;46564;53.096;8.246;2023-06-26T00:45:57;101160.53;;;20.86;74.73
60715;BME280;46564;53.096;8.246;2023-06-26T00:50:58;101156.22;;;20.80;74.76
60715;BME280;46564;53.096;8.246;2023-06-26T00:56:01;101148.28;;;20.77;74.92
60715;BME280;46564;53.096;8.246;2023-06-26T01:01:04;101142.19;;;20.72;74.97
60715;BME280;46564;53.096;8.246;2023-06-26T01:06:07;101131.59;;;20.71;75.26
60715;BME280;46564;53.096;8.246;2023-06-26T01:11:13;101127.19;;;20.68;75.13
60715;BME280;46564;53.096;8.246;2023-06-26T01:16:17;101118.44;;;20.61;75.68
60715;BME280;46564;53.096;8.246;2023-06-26T01:21:21;101109.66;;;20.56;75.98
60715;BME280;46564;53.096;8.246;2023-06-26T01:26:25;101109.72;;;20.52;75.96
60715;BME280;46564;53.096;8.246;2023-06-26T01:31:28;101101.81;;;20.48;76.14
60715;BME280;46564;53.096;8.246;2023-06-26T01:36:32;101090.44;;;20.42;76.57
60715;BME280;46564;53.096;8.246;2023-06-26T01:41:34;101085.22;;;20.36;76.59
60715;BME280;46564;53.096;8.246;2023-06-26T01:46:37;101078.28;;;20.28;76.81
60715;BME280;46564;53.096;8.246;2023-06-26T01:51:46;101074.81;;;20.23;77.16
60715;BME280;46564;53.096;8.246;2023-06-26T01:56:49;101070.47;;;20.19;77.52
60715;BME280;46564;53.096;8.246;2023-06-26T02:01:52;101058.16;;;20.13;77.68
60715;BME280;46564;53.096;8.246;2023-06-26T02:06:54;101060.91;;;20.09;78.03
60715;BME280;46564;53.096;8.246;2023-06-26T02:11:56;101051.19;;;20.06;77.99
60715;BME280;46564;53.096;8.246;2023-06-26T02:16:58;101046.00;;;20.00;78.18
60715;BME280;46564;53.096;8.246;2023-06-26T02:22:02;101044.28;;;19.96;78.26
60715;BME280;46564;53.096;8.246;2023-06-26T02:27:04;101031.09;;;19.90;78.67
60715;BME280;46564;53.096;8.246;2023-06-26T02:32:05;101029.44;;;19.84;78.76
60715;BME280;46564;53.096;8.246;2023-06-26T02:37:08;101018.84;;;19.81;78.96
60715;BME280;46564;53.096;8.246;2023-06-26T02:42:10;101020.69;;;19.79;79.18
60715;BME280;46564;53.096;8.246;2023-06-26T02:47:11;101019.00;;;19.72;79.48
60715;BME280;46564;53.096;8.246;2023-06-26T02:52:16;101016.47;;;19.64;79.31
60715;BME280;46564;53.096;8.246;2023-06-26T02:57:18;101006.75;;;19.61;79.62
60715;BME280;46564;53.096;8.246;2023-06-26T03:02:20;101011.22;;;19.61;79.48
60715;BME280;46564;53.096;8.246;2023-06-26T03:07:22;101005.94;;;19.59;79.90
60715;BME280;46564;53.096;8.246;2023-06-26T03:12:24;101000.66;;;19.56;79.74
60715;BME280;46564;53.096;8.246;2023-06-26T03:17:26;101013.06;;;19.54;79.63
60715;BME280;46564;53.096;8.246;2023-06-26T03:22:33;100998.97;;;19.51;79.70
60715;BME280;46564;53.096;8.246;2023-06-26T03:27:35;100993.69;;;19.49;79.83
60715;BME280;46564;53.096;8.246;2023-06-26T03:32:37;100994.59;;;19.48;79.57
60715;BME280;46564;53.096;8.246;2023-06-26T03:37:39;100991.97;;;19.47;79.85
60715;BME280;46564;53.096;8.246;2023-06-26T03:42:42;100987.53;;;19.47;79.89
60715;BME280;46564;53.096;8.246;2023-06-26T03:47:45;100978.63;;;19.50;79.90
60715;BME280;46564;53.096;8.246;2023-06-26T03:52:50;100978.56;;;19.53;79.94
60715;BME280;46564;53.096;8.246;2023-06-26T03:57:52;100968.88;;;19.52;79.82
60715;BME280;46564;53.096;8.246;2023-06-26T04:02:54;100977.69;;;19.54;79.71
60715;BME280;46564;53.096;8.246;2023-06-26T04:07:56;100969.56;;;19.61;79.99
60715;BME280;46564;53.096;8.246;2023-06-26T04:12:59;100970.31;;;19.71;79.63
60715;BME280;46564;53.096;8.246;2023-06-26T04:18:01;100970.09;;;19.85;79.46
60715;BME280;46564;53.096;8.246;2023-06-26T04:23:03;100962.72;;;19.98;79.50
60715;BME280;46564;53.096;8.246;2023-06-26T04:28:04;100957.09;;;20.15;79.13
60715;BME280;46564;53.096;8.246;2023-06-26T04:33:06;100939.06;;;20.29;78.50
60715;BME280;46564;53.096;8.246;2023-06-26T04:38:08;100939.75;;;20.41;78.23
60715;BME280;46564;53.096;8.246;2023-06-26T04:43:10;100949.34;;;20.48;77.68
60715;BME280;46564;53.096;8.246;2023-06-26T04:48:12;100944.72;;;20.56;77.48
60715;BME280;46564;53.096;8.246;2023-06-26T04:53:14;100938.28;;;20.68;76.99
60715;BME280;46564;53.096;8.246;2023-06-26T04:58:15;100944.31;;;20.76;76.33
60715;BME280;46564;53.096;8.246;2023-06-26T05:03:18;100950.50;;;20.77;76.33
60715;BME280;46564;53.096;8.246;2023-06-26T05:08:24;100942.59;;;20.74;76.08
60715;BME280;46564;53.096;8.246;2023-06-26T05:13:27;100941.69;;;20.75;75.73
60715;BME280;46564;53.096;8.246;2023-06-26T05:18:29;100945.09;;;20.81;76.11
60715;BME280;46564;53.096;8.246;2023-06-26T05:23:32;100944.81;;;20.92;75.84
60715;BME280;46564;53.096;8.246;2023-06-26T05:28:34;100941.75;;;21.11;75.85
60715;BME280;46564;53.096;8.246;2023-06-26T05:33:37;100936.69;;;21.34;75.06
60715;BME280;46564;53.096;8.246;2023-06-26T05:38:40;100932.56;;;21.59;74.40
60715;BME280;46564;53.096;8.246;2023-06-26T05:43:42;100921.94;;;21.90;73.55
60715;BME280;46564;53.096;8.246;2023-06-26T05:48:43;100927.41;;;22.17;72.76
60715;BME280;46564;53.096;8.246;2023-06-26T05:53:45;100927.56;;;22.44;71.29
60715;BME280;46564;53.096;8.246;2023-06-26T05:58:47;100925.94;;;22.68;70.75
60715;BME280;46564;53.096;8.246;2023-06-26T06:03:49;100928.31;;;22.77;69.88
60715;BME280;46564;53.096;8.246;2023-06-26T06:08:51;100943.88;;;22.92;69.98
60715;BME280;46564;53.096;8.246;2023-06-26T06:13:52;100946.50;;;23.21;69.75
60715;BME280;46564;53.096;8.246;2023-06-26T06:18:54;100942.13;;;23.46;68.95
60715;BME280;46564;53.096;8.246;2023-06-26T06:23:55;100944.53;;;23.54;68.64
60715;BME280;46564;53.096;8.246;2023-06-26T06:28:57;100951.78;;;23.76;68.15
60715;BME280;46564;53.096;8.246;2023-06-26T06:33:58;100960.47;;;23.82;67.75
60715;BME280;46564;53.096;8.246;2023-06-26T06:39:00;100962.78;;;23.93;67.20
60715;BME280;46564;53.096;8.246;2023-06-26T06:44:02;100966.00;;;24.03;66.78
60715;BME280;46564;53.096;8.246;2023-06-26T06:49:03;100974.34;;;23.94;66.43
60715;BME280;46564;53.096;8.246;2023-06-26T06:54:05;100988.63;;;23.93;66.39
60715;BME280;46564;53.096;8.246;2023-06-26T06:59:07;100977.19;;;24.14;66.76
60715;BME280;46564;53.096;8.246;2023-06-26T07:04:09;101009.19;;;24.17;66.32
60715;BME280;46564;53.096;8.246;2023-06-26T07:09:11;101011.19;;;23.86;66.44
60715;BME280;46564;53.096;8.246;2023-06-26T07:14:12;101005.94;;;23.82;66.99
60715;BME280;46564;53.096;8.246;2023-06-26T07:19:14;101018.63;;;23.76;67.71
60715;BME280;46564;53.096;8.246;2023-06-26T07:24:15;101028.03;;;23.61;68.01
60715;BME280;46564;53.096;8.246;2023-06-26T07:29:17;101060.34;;;23.53;68.50
60715;BME280;46564;53.096;8.246;2023-06-26T07:34:19;101067.59;;;23.50;68.83
60715;BME280;46564;53.096;8.246;2023-06-26T07:39:20;101096.28;;;23.15;69.73
60715;BME280;46564;53.096;8.246;2023-06-26T07:44:24;101113.97;;;22.56;71.25
60715;BME280;46564;53.096;8.246;2023-06-26T07:49:26;101125.38;;;21.56;75.18
60715;BME280;46564;53.096;8.246;2023-06-26T07:54:28;101125.38;;;21.56;75.18
60715;BME280;46564;53.096;8.246;2023-06-26T07:59:31;101120.59;;;20.41;82.06
60715;BME280;46564;53.096;8.246;2023-06-26T08:04:32;101103.81;;;20.37;83.55
60715;BME280;46564;53.096;8.246;2023-06-26T08:09:35;101105.66;;;20.32;85.02
60715;BME280;46564;53.096;8.246;2023-06-26T08:14:37;101105.56;;;20.37;85.96
60715;BME280;46564;53.096;8.246;2023-06-26T08:19:38;101112.72;;;20.35;87.21
60715;BME280;46564;53.096;8.246;2023-06-26T08:24:40;101139.91;;;20.49;87.74
60715;BME280;46564;53.096;8.246;2023-06-26T08:29:41;101157.16;;;20.78;87.62
60715;BME280;46564;53.096;8.246;2023-06-26T08:34:43;101154.34;;;21.29;88.01
60715;BME280;46564;53.096;8.246;2023-06-26T08:39:45;101165.25;;;21.59;87.34
60715;BME280;46564;53.096;8.246;2023-06-26T08:44:47;101157.91;;;21.69;86.03
60715;BME280;46564;53.096;8.246;2023-06-26T08:50:13;101172.63;;;21.85;84.16
60715;BME280;46564;53.096;8.246;2023-06-26T08:55:16;101167.09;;;22.29;82.73
60715;BME280;46564;53.096;8.246;2023-06-26T09:00:19;101180.38;;;22.67;80.16
60715;BME280;46564;53.096;8.246;2023-06-26T09:05:22;101187.88;;;22.87;78.50
60715;BME280;46564;53.096;8.246;2023-06-26T09:10:24;101189.94;;;22.75;77.51
60715;BME280;46564;53.096;8.246;2023-06-26T09:15:25;101205.84;;;23.13;76.64
60715;BME280;46564;53.096;8.246;2023-06-26T09:20:28;101215.50;;;22.84;72.82
60715;BME280;46564;53.096;8.246;2023-06-26T09:25:32;101227.41;;;23.05;72.01
60715;BME280;46564;53.096;8.246;2023-06-26T09:30:35;101226.50;;;23.38;70.70
60715;BME280;46564;53.096;8.246;2023-06-26T09:35:38;101242.94;;;23.54;69.62
60715;BME280;46564;53.096;8.246;2023-06-26T09:40:40;101233.88;;;23.59;68.57
60715;BME280;46564;53.096;8.246;2023-06-26T09:45:42;101251.81;;;23.56;67.94
60715;BME280;46564;53.096;8.246;2023-06-26T09:50:45;101255.00;;;23.04;67.00
60715;BME280;46564;53.096;8.246;2023-06-26T09:56:06;101266.31;;;22.81;66.95
60715;BME280;46564;53.096;8.246;2023-06-26T10:01:09;101273.91;;;22.62;66.99
60715;BME280;46564;53.096;8.246;2023-06-26T10:06:11;101272.31;;;22.91;66.36
60715;BME280;46564;53.096;8.246;2023-06-26T10:11:16;101271.09;;;23.36;65.55
60715;BME280;46564;53.096;8.246;2023-06-26T10:16:23;101276.78;;;23.86;64.50
60715;BME280;46564;53.096;8.246;2023-06-26T10:21:29;101286.09;;;24.31;63.19
60715;BME280;46564;53.096;8.246;2023-06-26T10:26:35;101289.41;;;24.38;61.83
60715;BME280;46564;53.096;8.246;2023-06-26T10:31:41;101307.78;;;24.48;60.58
60715;BME280;46564;53.096;8.246;2023-06-26T10:36:44;101310.56;;;24.45;60.05
60715;BME280;46564;53.096;8.246;2023-06-26T10:41:45;101309.88;;;24.40;58.95
60715;BME280;46564;53.096;8.246;2023-06-26T10:47:05;101322.13;;;24.19;58.62
60715;BME280;46564;53.096;8.246;2023-06-26T10:52:07;101332.25;;;24.38;58.25
60715;BME280;46564;53.096;8.246;2023-06-26T10:57:09;101329.81;;;24.30;58.20
60715;BME280;46564;53.096;8.246;2023-06-26T11:02:10;101327.97;;;23.72;57.92
60715;BME280;46564;53.096;8.246;2023-06-26T11:07:16;101340.25;;;24.09;58.70
60715;BME280;46564;53.096;8.246;2023-06-26T11:12:41;101330.16;;;24.76;58.41
60715;BME280;46564;53.096;8.246;2023-06-26T11:17:46;101334.63;;;24.75;57.43
60715;BME280;46564;53.096;8.246;2023-06-26T11:22:52;101332.69;;;24.80;56.54
60715;BME280;46564;53.096;8.246;2023-06-26T11:27:53;101349.97;;;24.97;56.62
60715;BME280;46564;53.096;8.246;2023-06-26T11:33:05;101355.53;;;24.64;56.79
60715;BME280;46564;53.096;8.246;2023-06-26T11:38:07;101352.06;;;24.87;57.67
60715;BME280;46564;53.096;8.246;2023-06-26T11:43:10;101353.47;;;24.99;57.17
60715;BME280;46564;53.096;8.246;2023-06-26T11:48:11;101367.53;;;24.50;57.29
60715;BME280;46564;53.096;8.246;2023-06-26T11:53:14;101380.47;;;24.06;57.33
60715;BME280;46564;53.096;8.246;2023-06-26T11:58:16;101378.25;;;23.58;57.59
60715;BME280;46564;53.096;8.246;2023-06-26T12:03:18;101388.03;;;23.92;58.73
60715;BME280;46564;53.096;8.246;2023-06-26T12:08:20;101385.47;;;23.89;57.07
60715;BME280;46564;53.096;8.246;2023-06-26T12:13:22;101393.75;;;24.39;56.56
60715;BME280;46564;53.096;8.246;2023-06-26T12:18:24;101390.78;;;24.48;56.07
60715;BME280;46564;53.096;8.246;2023-06-26T12:23:38;101382.00;;;24.73;56.37
60715;BME280;46564;53.096;8.246;2023-06-26T12:28:40;101377.63;;;25.24;56.61
60715;BME280;46564;53.096;8.246;2023-06-26T12:33:45;101383.53;;;25.34;55.36
60715;BME280;46564;53.096;8.246;2023-06-26T12:38:48;101392.31;;;25.12;54.67
60715;BME280;46564;53.096;8.246;2023-06-26T12:43:55;101388.72;;;24.86;54.13
60715;BME280;46564;53.096;8.246;2023-06-26T12:48:57;101389.78;;;25.08;53.44
60715;BME280;46564;53.096;8.246;2023-06-26T12:53:59;101406.25;;;24.68;53.11
60715;BME280;46564;53.096;8.246;2023-06-26T12:59:01;101403.47;;;24.42;53.33
60715;BME280;46564;53.096;8.246;2023-06-26T13:04:02;101404.91;;;24.53;53.57
60715;BME280;46564;53.096;8.246;2023-06-26T13:09:05;101400.34;;;23.97;53.00
60715;BME280;46564;53.096;8.246;2023-06-26T13:14:07;101405.22;;;24.14;53.23
60715;BME280;46564;53.096;8.246;2023-06-26T13:19:12;101401.53;;;24.18;52.47
60715;BME280;46564;53.096;8.246;2023-06-26T13:24:14;101409.63;;;24.15;52.30
60715;BME280;46564;53.096;8.246;2023-06-26T13:29:17;101408.97;;;24.37;52.67
60715;BME280;46564;53.096;8.246;2023-06-26T13:34:23;101425.16;;;23.70;52.90
60715;BME280;46564;53.096;8.246;2023-06-26T13:39:25;101417.78;;;23.12;53.96
60715;BME280;46564;53.096;8.246;2023-06-26T13:44:26;101438.91;;;23.21;54.69
60715;BME280;46564;53.096;8.246;2023-06-26T13:49:39;101451.22;;;23.28;54.85
60715;BME280;46564;53.096;8.246;2023-06-26T13:54:40;101441.88;;;23.07;55.91
60715;BME280;46564;53.096;8.246;2023-06-26T13:59:43;101432.78;;;22.78;56.61
60715;BME280;46564;53.096;8.246;2023-06-26T14:04:48;101435.03;;;22.97;57.24
60715;BME280;46564;53.096;8.246;2023-06-26T14:09:50;101432.91;;;23.11;57.14
60715;BME280;46564;53.096;8.246;2023-06-26T14:14:52;101434.75;;;23.09;57.33
60715;BME280;46564;53.096;8.246;2023-06-26T14:19:53;101445.03;;;22.87;57.17
60715;BME280;46564;53.096;8.246;2023-06-26T14:24:55;101454.06;;;22.82;57.07
60715;BME280;46564;53.096;8.246;2023-06-26T14:29:56;101460.91;;;22.93;57.30
60715;BME280;46564;53.096;8.246;2023-06-26T14:34:58;101464.41;;;22.97;56.71
60715;BME280;46564;53.096;8.246;2023-06-26T14:40:00;101466.22;;;22.95;56.97
60715;BME280;46564;53.096;8.246;2023-06-26T14:45:02;101462.13;;;22.80;57.25
60715;BME280;46564;53.096;8.246;2023-06-26T14:50:05;101464.84;;;22.77;57.33
60715;BME280;46564;53.096;8.246;2023-06-26T14:55:07;101469.50;;;22.69;57.33
60715;BME280;46564;53.096;8.246;2023-06-26T15:00:09;101461.81;;;22.55;57.33
60715;BME280;46564;53.096;8.246;2023-06-26T15:05:11;101472.97;;;22.72;56.73
60715;BME280;46564;53.096;8.246;2023-06-26T15:10:12;101471.50;;;22.59;55.63
60715;BME280;46564;53.096;8.246;2023-06-26T15:15:14;101468.13;;;22.90;55.10
60715;BME280;46564;53.096;8.246;2023-06-26T15:20:17;101471.16;;;22.74;54.84
60715;BME280;46564;53.096;8.246;2023-06-26T15:25:18;101477.38;;;22.75;54.85
60715;BME280;46564;53.096;8.246;2023-06-26T15:30:20;101486.47;;;22.66;54.92
60715;BME280;46564;53.096;8.246;2023-06-26T15:35:21;101477.75;;;22.58;55.01
60715;BME280;46564;53.096;8.246;2023-06-26T15:40:23;101489.00;;;22.72;55.72
60715;BME280;46564;53.096;8.246;2023-06-26T15:45:25;101497.50;;;22.90;55.26
60715;BME280;46564;53.096;8.246;2023-06-26T15:50:27;101500.84;;;22.98;54.59
60715;BME280;46564;53.096;8.246;2023-06-26T15:55:29;101501.25;;;23.20;54.33
60715;BME280;46564;53.096;8.246;2023-06-26T16:00:30;101510.56;;;22.63;54.57
60715;BME280;46564;53.096;8.246;2023-06-26T16:05:32;101510.81;;;22.05;55.33
60715;BME280;46564;53.096;8.246;2023-06-26T16:10:34;101517.53;;;21.77;56.50
60715;BME280;46564;53.096;8.246;2023-06-26T16:15:35;101511.34;;;21.76;56.24
60715;BME280;46564;53.096;8.246;2023-06-26T16:20:37;101509.84;;;21.60;56.22
60715;BME280;46564;53.096;8.246;2023-06-26T16:25:39;101524.88;;;21.65;56.63
60715;BME280;46564;53.096;8.246;2023-06-26T16:30:41;101524.38;;;21.39;57.03
60715;BME280;46564;53.096;8.246;2023-06-26T16:35:43;101518.34;;;21.82;57.35
60715;BME280;46564;53.096;8.246;2023-06-26T16:40:44;101525.19;;;21.44;56.89
60715;BME280;46564;53.096;8.246;2023-06-26T16:45:46;101520.97;;;21.30;57.14
60715;BME280;46564;53.096;8.246;2023-06-26T16:50:48;101526.91;;;20.90;57.73
60715;BME280;46564;53.096;8.246;2023-06-26T16:55:50;101528.09;;;20.64;58.96
60715;BME280;46564;53.096;8.246;2023-06-26T17:00:52;101535.25;;;20.59;58.56
60715;BME280;46564;53.096;8.246;2023-06-26T17:05:53;101534.06;;;20.83;58.19
60715;BME280;46564;53.096;8.246;2023-06-26T17:10:55;101530.09;;;20.47;57.98
60715;BME280;46564;53.096;8.246;2023-06-26T17:15:56;101535.75;;;20.19;59.15
60715;BME280;46564;53.096;8.246;2023-06-26T17:20:58;101536.81;;;20.03;60.18
60715;BME280;46564;53.096;8.246;2023-06-26T17:25:59;101542.75;;;20.25;60.45
60715;BME280;46564;53.096;8.246;2023-06-26T17:31:04;101547.59;;;20.68;59.59
60715;BME280;46564;53.096;8.246;2023-06-26T17:36:05;101554.63;;;20.74;58.39
60715;BME280;46564;53.096;8.246;2023-06-26T17:41:07;101552.06;;;20.66;58.63
60715;BME280;46564;53.096;8.246;2023-06-26T17:46:09;101564.84;;;20.31;58.87
60715;BME280;46564;53.096;8.246;2023-06-26T17:51:10;101566.91;;;20.05;58.60
60715;BME280;46564;53.096;8.246;2023-06-26T17:56:12;101567.03;;;19.92;59.01
60715;BME280;46564;53.096;8.246;2023-06-26T18:01:14;57128.34;;;-147.53;100.00
60715;BME280;46564;53.096;8.246;2023-06-26T18:06:15;57128.34;;;-147.53;100.00
60715;BME280;46564;53.096;8.246;2023-06-26T18:11:17;57128.34;;;-147.53;100.00
60715;BME280;46564;53.096;8.246;2023-06-26T18:16:19;57128.34;;;-147.53;100.00
60715;BME280;46564;53.096;8.246;2023-06-26T18:21:23;57128.34;;;-147.53;100.00
60715;BME280;46564;53.096;8.246;2023-06-26T18:26:25;57128.34;;;-147.53;100.00
60715;BME280;46564;53.096;8.246;2023-06-26T18:31:26;57128.34;;;-147.53;100.00
60715;BME280;46564;53.096;8.246;2023-06-26T18:36:28;57128.34;;;-147.53;100.00
60715;BME280;46564;53.096;8.246;2023-06-26T18:41:32;57128.34;;;-147.53;100.00
60715;BME280;46564;53.096;8.246;2023-06-26T18:46:34;57128.34;;;-147.53;100.00
60715;BME280;46564;53.096;8.246;2023-06-26T18:51:36;57128.34;;;-147.53;100.00
60715;BME280;46564;53.096;8.246;2023-06-26T18:56:37;57128.34;;;-147.53;100.00
60715;BME280;46564;53.096;8.246;2023-06-26T19:01:39;57128.34;;;-147.53;100.00
60715;BME280;46564;53.096;8.246;2023-06-26T19:06:41;57128.34;;;-147.53;100.00
60715;BME280;46564;53.096;8.246;2023-06-26T19:11:42;57128.34;;;-147.53;100.00
60715;BME280;46564;53.096;8.246;2023-06-26T19:16:44;57128.34;;;-147.53;100.00
60715;BME280;46564;53.096;8.246;2023-06-26T19:21:45;57128.34;;;-147.53;100.00
60715;BME280;46564;53.096;8.246;2023-06-26T19:26:48;57128.34;;;-147.53;100.00
60715;BME280;46564;53.096;8.246;2023-06-26T19:31:52;57128.34;;;-147.53;100.00
60715;BME280;46564;53.096;8.246;2023-06-26T19:36:53;57128.34;;;-147.53;100.00
60715;BME280;46564;53.096;8.246;2023-06-26T19:41:55;57128.34;;;-147.53;100.00
60715;BME280;46564;53.096;8.246;2023-06-26T19:46:57;57128.34;;;-147.53;100.00
60715;BME280;46564;53.096;8.246;2023-06-26T19:51:59;57128.34;;;-147.53;100.00
60715;BME280;46564;53.096;8.246;2023-06-26T19:57:00;57128.34;;;-147.53;100.00
60715;BME280;46564;53.096;8.246;2023-06-26T20:02:02;57128.34;;;-147.53;100.00
60715;BME280;46564;53.096;8.246;2023-06-26T20:07:04;57128.34;;;-147.53;100.00
60715;BME280;46564;53.096;8.246;2023-06-26T20:12:08;57128.34;;;-147.53;100.00
60715;BME280;46564;53.096;8.246;2023-06-26T20:17:12;57128.34;;;-147.53;100.00
60715;BME280;46564;53.096;8.246;2023-06-26T20:22:14;57128.34;;;-147.53;100.00
60715;BME280;46564;53.096;8.246;2023-06-26T20:27:15;57128.34;;;-147.53;100.00
60715;BME280;46564;53.096;8.246;2023-06-26T20:32:17;57128.34;;;-147.53;100.00
60715;BME280;46564;53.096;8.246;2023-06-26T20:37:19;57128.34;;;-147.53;100.00
60715;BME280;46564;53.096;8.246;2023-06-26T20:42:20;57128.34;;;-147.53;100.00
60715;BME280;46564;53.096;8.246;2023-06-26T20:47:23;57128.34;;;-147.53;100.00
60715;BME280;46564;53.096;8.246;2023-06-26T20:52:33;57128.34;;;-147.53;100.00
60715;BME280;46564;53.096;8.246;2023-06-26T20:57:35;57128.34;;;-147.53;100.00
60715;BME280;46564;53.096;8.246;2023-06-26T21:02:37;57128.34;;;-147.53;100.00
60715;BME280;46564;53.096;8.246;2023-06-26T21:07:39;57128.34;;;-147.53;100.00
60715;BME280;46564;53.096;8.246;2023-06-26T21:12:40;57128.34;;;-147.53;100.00
60715;BME280;46564;53.096;8.246;2023-06-26T21:17:45;57128.34;;;-147.53;100.00
60715;BME280;46564;53.096;8.246;2023-06-26T21:22:46;57128.34;;;-147.53;100.00
60715;BME280;46564;53.096;8.246;2023-06-26T21:27:48;57128.34;;;-147.53;100.00
60715;BME280;46564;53.096;8.246;2023-06-26T21:32:50;57128.34;;;-147.53;100.00
60715;BME280;46564;53.096;8.246;2023-06-26T21:37:51;57128.34;;;-147.53;100.00
60715;BME280;46564;53.096;8.246;2023-06-26T21:42:53;57128.34;;;-147.53;100.00
60715;BME280;46564;53.096;8.246;2023-06-26T21:47:54;57128.34;;;-147.53;100.00
60715;BME280;46564;53.096;8.246;2023-06-26T21:52:56;57128.34;;;-147.53;100.00
60715;BME280;46564;53.096;8.246;2023-06-26T21:57:58;57128.34;;;-147.53;100.00
60715;BME280;46564;53.096;8.246;2023-06-26T22:02:59;57128.34;;;-147.53;100.00
60715;BME280;46564;53.096;8.246;2023-06-26T22:08:01;57128.34;;;-147.53;100.00
60715;BME280;46564;53.096;8.246;2023-06-26T22:13:04;57128.34;;;-147.53;100.00
60715;BME280;46564;53.096;8.246;2023-06-26T22:18:06;57128.34;;;-147.53;100.00
60715;BME280;46564;53.096;8.246;2023-06-26T22:23:08;57128.34;;;-147.53;100.00
60715;BME280;46564;53.096;8.246;2023-06-26T22:28:10;57128.34;;;-147.53;100.00
60715;BME280;46564;53.096;8.246;2023-06-26T22:33:12;57128.34;;;-147.53;100.00
60715;BME280;46564;53.096;8.246;2023-06-26T22:38:14;57128.34;;;-147.53;100.00
60715;BME280;46564;53.096;8.246;2023-06-26T22:43:16;57128.34;;;-147.53;100.00
60715;BME280;46564;53.096;8.246;2023-06-26T22:48:17;57128.34;;;-147.53;100.00
60715;BME280;46564;53.096;8.246;2023-06-26T22:53:19;57128.34;;;-147.53;100.00
60715;BME280;46564;53.096;8.246;2023-06-26T22:58:23;57128.34;;;-147.53;100.00
60715;BME280;46564;53.096;8.246;2023-06-26T23:03:27;57128.34;;;-147.53;100.00
60715;BME280;46564;53.096;8.246;2023-06-26T23:08:28;57128.34;;;-147.53;100.00
60715;BME280;46564;53.096;8.246;2023-06-26T23:13:30;57128.34;;;-147.53;100.00
60715;BME280;46564;53.096;8.246;2023-06-26T23:18:32;57128.34;;;-147.53;100.00
60715;BME280;46564;53.096;8.246;2023-06-26T23:23:34;57128.34;;;-147.53;100.00
60715;BME280;46564;53.096;8.246;2023-06-26T23:28:39;57128.34;;;-147.53;100.00
60715;BME280;46564;53.096;8.246;2023-06-26T23:33:41;57128.34;;;-147.53;100.00
60715;BME280;46564;53.096;8.246;2023-06-26T23:38:42;57128.34;;;-147.53;100.00
60715;BME280;46564;53.096;8.246;2023-06-26T23:43:44;57128.34;;;-147.53;100.00
60715;BME280;46564;53.096;8.246;2023-06-26T23:48:46;57128.34;;;-147.53;100.00
60715;BME280;46564;53.096;8.246;2023-06-26T23:53:48;57128.34;;;-147.53;100.00
60715;BME280;46564;53.096;8.246;2023-06-26T23:58:49;57128.34;;;-147.53;100.00
